Time;durP1;ratioP1;P1;durP2;ratioP2;P2;SDS_P1;SDS_P2;PMS_P1;PMS_P2;Temp;Humidity;BMP_temperature;BMP_pressure;BME280_temperature;BME280_humidity;BME280_pressure;Samples;Min_cycle;Max_cycle;Signal;HPM_P1;HPM_P2
2022/01/15 00:00:36;;;;;;;20.40;4.60;;;;;;;1.58;89.07;101436.56;105618;1270;564196;-62
2022/01/15 00:03:15;;;;;;;24.60;5.40;;;;;;;1.56;89.06;101437.19;106088;1270;26534;-62
2022/01/15 00:05:47;;;;;;;21.10;3.50;;;;;;;1.55;88.99;101438.20;106023;1270;22660;-63
2022/01/15 00:08:20;;;;;;;22.90;4.10;;;;;;;1.53;89.01;101440.64;105968;1270;26596;-63
2022/01/15 00:10:53;;;;;;;29.40;5.40;;;;;;;1.51;89.06;101440.23;105864;1270;22525;-64
2022/01/15 00:13:27;;;;;;;27.70;3.70;;;;;;;1.50;89.09;101444.16;106027;1271;25270;-63
2022/01/15 00:16:07;;;;;;;30.10;3.70;;;;;;;1.49;89.04;101447.14;106012;1270;24306;-63
2022/01/15 00:18:45;;;;;;;26.40;3.20;;;;;;;1.47;89.04;101450.05;106059;1271;22525;-63
2022/01/15 00:21:17;;;;;;;22.80;4.30;;;;;;;1.46;89.02;101451.46;106020;1271;25359;-63
2022/01/15 00:23:50;;;;;;;23.50;4.50;;;;;;;1.43;89.06;101452.95;106106;1270;25397;-62
2022/01/15 00:26:22;;;;;;;21.30;3.40;;;;;;;1.42;89.10;101450.11;106126;1271;22488;-63
2022/01/15 00:28:53;;;;;;;24.60;3.70;;;;;;;1.40;89.07;101446.40;105736;1270;22571;-63
2022/01/15 00:31:26;;;;;;;31.20;4.50;;;;;;;1.38;88.94;101446.16;106094;1270;24428;-63
2022/01/15 00:33:58;;;;;;;21.00;3.60;;;;;;;1.36;89.08;101444.02;106096;1271;22547;-64
2022/01/15 00:36:30;;;;;;;24.60;3.50;;;;;;;1.34;89.10;101446.15;106039;1271;22531;-63
2022/01/15 00:39:02;;;;;;;28.70;4.30;;;;;;;1.33;89.03;101439.15;106150;1271;24251;-63
2022/01/15 00:41:33;;;;;;;23.90;4.10;;;;;;;1.31;89.00;101437.96;106067;1270;23085;-63
2022/01/15 00:44:05;;;;;;;27.80;4.30;;;;;;;1.28;88.97;101436.21;106073;1271;25370;-63
2022/01/15 00:46:37;;;;;;;25.50;4.20;;;;;;;1.26;89.01;101435.73;106037;1271;25371;-62
2022/01/15 00:49:10;;;;;;;25.10;4.60;;;;;;;1.23;88.98;101430.70;106019;1270;24224;-63
2022/01/15 00:51:42;;;;;;;28.50;3.90;;;;;;;1.21;89.07;101436.11;106388;1270;25270;-63
2022/01/15 00:54:16;;;;;;;26.80;5.40;;;;;;;1.19;89.02;101435.40;105966;1271;24315;-63
2022/01/15 00:56:49;;;;;;;36.70;4.80;;;;;;;1.17;88.99;101436.09;106136;1271;24009;-63
2022/01/15 00:59:21;;;;;;;18.50;3.00;;;;;;;1.15;88.98;101436.88;106064;1270;23139;-63
2022/01/15 01:01:53;;;;;;;26.00;3.90;;;;;;;1.14;89.14;101438.67;106032;1271;25326;-62
2022/01/15 01:04:24;;;;;;;25.70;3.40;;;;;;;1.12;89.06;101438.44;106426;1270;22602;-63
2022/01/15 01:06:56;;;;;;;24.60;3.80;;;;;;;1.11;89.25;101442.59;105954;1270;25334;-62
2022/01/15 01:09:39;;;;;;;25.40;3.10;;;;;;;1.11;89.25;101443.70;106229;1270;25583;-62
2022/01/15 01:12:26;;;;;;;30.90;5.00;;;;;;;1.10;89.30;101441.80;106046;1271;22552;-63
2022/01/15 01:21:02;;;;;;;22.20;3.80;;;;;;;1.03;89.19;101439.33;105442;1276;25589;-62
2022/01/15 01:23:34;;;;;;;29.00;3.20;;;;;;;1.02;89.15;101441.21;105506;1276;25498;-62
2022/01/15 01:26:10;;;;;;;21.90;3.40;;;;;;;1.00;89.01;101446.46;105597;1276;22541;-63
2022/01/15 01:28:46;;;;;;;25.10;3.10;;;;;;;0.96;89.05;101443.30;105469;1276;22586;-63
2022/01/15 01:31:22;;;;;;;24.00;3.50;;;;;;;0.95;89.03;101442.98;105589;1276;25479;-62
2022/01/15 01:33:57;;;;;;;29.50;4.30;;;;;;;0.93;89.11;101451.38;105469;1276;24723;-63
2022/01/15 01:36:41;;;;;;;32.60;5.50;;;;;;;0.91;89.11;101450.27;105587;1276;25394;-63
2022/01/15 01:39:17;;;;;;;31.70;5.20;;;;;;;0.89;89.17;101453.16;105447;1276;25381;-62
2022/01/15 01:42:05;;;;;;;23.70;3.40;;;;;;;0.87;89.07;101448.73;105475;1276;24333;-63
2022/01/15 01:44:40;;;;;;;23.90;3.00;;;;;;;0.85;89.09;101451.87;105449;1276;22524;-63
2022/01/15 01:47:23;;;;;;;25.40;3.10;;;;;;;0.81;89.10;101457.52;105515;1276;22561;-63
2022/01/15 01:49:54;;;;;;;18.10;2.90;;;;;;;0.77;89.22;101453.17;105484;1276;22600;-63
2022/01/15 01:52:25;;;;;;;25.30;3.70;;;;;;;0.74;89.31;101457.01;105560;1271;22539;-63
2022/01/15 01:54:56;;;;;;;21.60;4.40;;;;;;;0.72;89.24;101450.30;105802;1270;25416;-63
2022/01/15 01:57:28;;;;;;;27.30;3.40;;;;;;;0.70;89.30;101448.88;106098;1271;23182;-63
2022/01/15 01:59:59;;;;;;;26.40;3.30;;;;;;;0.68;89.40;101446.98;106027;1271;25365;-63
2022/01/15 02:02:30;;;;;;;27.50;3.90;;;;;;;0.67;89.32;101447.91;106028;1271;22629;-64
2022/01/15 02:05:02;;;;;;;27.70;4.10;;;;;;;0.66;89.39;101446.02;106043;1270;22553;-64
2022/01/15 02:07:33;;;;;;;27.20;3.70;;;;;;;0.66;89.27;101445.73;105846;1270;22554;-63
2022/01/15 02:10:08;;;;;;;15.90;1.90;;;;;;;0.64;89.31;101445.70;106069;1271;22532;-63
2022/01/15 02:12:41;;;;;;;25.30;4.40;;;;;;;0.63;89.46;101446.40;105976;1270;25397;-63
2022/01/15 02:15:15;;;;;;;25.50;3.20;;;;;;;0.61;89.50;101445.14;106025;1271;22552;-63
2022/01/15 02:17:48;;;;;;;14.80;3.40;;;;;;;0.61;89.48;101443.72;106081;1271;25490;-62
2022/01/15 02:20:49;;;;;;;25.00;4.00;;;;;;;0.59;89.48;101444.66;106063;1270;26463;-62
2022/01/15 02:23:36;;;;;;;28.30;4.50;;;;;;;0.59;89.69;101445.66;105981;1271;22567;-62
2022/01/15 02:26:09;;;;;;;21.00;4.10;;;;;;;0.56;89.54;101450.52;106120;1271;23069;-60
2022/01/15 02:28:43;;;;;;;27.60;4.40;;;;;;;0.55;89.60;101450.66;105994;1271;25525;-62
2022/01/15 02:31:16;;;;;;;26.30;4.60;;;;;;;0.53;89.72;101455.36;106064;1271;22555;-62
2022/01/15 02:33:48;;;;;;;26.40;3.60;;;;;;;0.51;89.69;101451.73;106230;1270;22797;-62
2022/01/15 02:36:22;;;;;;;31.10;3.70;;;;;;;0.50;89.79;101456.04;105912;1271;22535;-62
2022/01/15 02:38:53;;;;;;;19.10;2.70;;;;;;;0.49;89.90;101449.91;105950;1270;25739;-62
2022/01/15 02:41:29;;;;;;;26.90;4.20;;;;;;;0.48;89.84;101445.83;106041;1271;24268;-63
2022/01/15 02:44:02;;;;;;;24.60;2.90;;;;;;;0.48;89.92;101445.26;106111;1270;22603;-62
2022/01/15 02:48:00;;;;;;;23.00;3.70;;;;;;;0.47;89.93;101439.79;106115;1270;22605;-62
2022/01/15 02:49:27;;;;;;;26.50;2.60;;;;;;;0.47;90.01;101440.40;106003;1271;25346;-63
2022/01/15 02:51:59;;;;;;;21.40;2.80;;;;;;;0.45;89.86;101437.48;106027;1270;24304;-63
2022/01/15 02:54:30;;;;;;;23.60;4.20;;;;;;;0.45;90.00;101438.49;106177;1270;22880;-64
2022/01/15 02:57:04;;;;;;;24.50;3.80;;;;;;;0.44;89.97;101437.33;106002;1271;22587;-64
2022/01/15 02:59:36;;;;;;;29.80;4.00;;;;;;;0.44;89.89;101437.79;105969;1271;22539;-62
2022/01/15 03:02:07;;;;;;;24.40;3.70;;;;;;;0.44;89.96;101439.90;106010;1270;24437;-62
2022/01/15 03:04:38;;;;;;;19.80;3.20;;;;;;;0.42;90.05;101436.60;106008;1271;22576;-62
2022/01/15 03:07:10;;;;;;;20.30;3.20;;;;;;;0.41;90.10;101439.65;106025;1271;22577;-63
2022/01/15 03:09:41;;;;;;;20.90;2.90;;;;;;;0.40;90.18;101433.13;106122;1271;25679;-63
2022/01/15 03:12:13;;;;;;;26.10;3.00;;;;;;;0.39;90.12;101434.06;106025;1271;25333;-64
2022/01/15 03:14:46;;;;;;;23.50;2.60;;;;;;;0.38;90.05;101436.00;105999;1270;25371;-63
2022/01/15 03:17:18;;;;;;;21.80;3.50;;;;;;;0.36;90.07;101435.84;105998;1271;25559;-63
2022/01/15 03:19:49;;;;;;;24.20;3.40;;;;;;;0.34;90.11;101438.81;105993;1270;23114;-64
2022/01/15 03:22:20;;;;;;;22.30;1.90;;;;;;;0.33;90.15;101437.30;105821;1270;22615;-62
2022/01/15 03:24:54;;;;;;;16.90;2.10;;;;;;;0.32;90.23;101435.96;106013;1271;25351;-62
2022/01/15 03:27:25;;;;;;;21.70;3.20;;;;;;;0.30;90.29;101434.94;106114;1271;22539;-63
2022/01/15 03:29:56;;;;;;;23.90;2.60;;;;;;;0.29;90.23;101433.66;106046;1271;24405;-63
2022/01/15 03:32:27;;;;;;;26.00;4.20;;;;;;;0.28;90.32;101430.52;106234;1271;22541;-64
2022/01/15 03:34:59;;;;;;;26.70;4.00;;;;;;;0.27;90.42;101434.52;106046;1270;25496;-63
2022/01/15 03:37:30;;;;;;;24.90;3.40;;;;;;;0.27;90.33;101432.94;106216;1270;22534;-62
2022/01/15 03:40:02;;;;;;;25.30;3.10;;;;;;;0.26;90.35;101432.08;106137;1271;25435;-63
2022/01/15 03:42:33;;;;;;;30.50;3.70;;;;;;;0.24;90.19;101429.63;106112;1271;22554;-62
2022/01/15 03:45:05;;;;;;;33.40;3.10;;;;;;;0.22;90.36;101430.63;105996;1270;24306;-63
2022/01/15 03:47:36;;;;;;;26.40;3.50;;;;;;;0.20;90.36;101430.30;106096;1271;25577;-63
2022/01/15 03:50:10;;;;;;;24.50;3.50;;;;;;;0.18;90.45;101429.58;105987;1271;22536;-62
2022/01/15 03:52:42;;;;;;;28.00;3.30;;;;;;;0.16;90.43;101428.86;106339;1271;23396;-63
2022/01/15 03:55:15;;;;;;;23.40;3.30;;;;;;;0.16;90.57;101427.60;106040;1271;25396;-62
2022/01/15 03:57:47;;;;;;;29.60;4.70;;;;;;;0.13;90.65;101429.85;106198;1270;22535;-62
2022/01/15 04:00:21;;;;;;;23.40;2.80;;;;;;;0.12;90.61;101425.05;106034;1271;24217;-63
2022/01/15 04:02:53;;;;;;;23.50;3.90;;;;;;;0.12;90.62;101431.97;106088;1270;22598;-63
2022/01/15 04:05:24;;;;;;;23.90;3.10;;;;;;;0.11;90.57;101435.16;105844;1270;26366;-63
2022/01/15 04:07:56;;;;;;;24.60;3.80;;;;;;;0.10;90.47;101437.66;106024;1271;26734;-62
2022/01/15 04:10:28;;;;;;;24.20;3.80;;;;;;;0.08;90.62;101441.42;106028;1271;25531;-63
2022/01/15 04:13:00;;;;;;;20.90;3.50;;;;;;;0.07;90.63;101441.27;105956;1270;22766;-63
2022/01/15 04:15:31;;;;;;;28.70;4.30;;;;;;;0.06;90.58;101448.23;106283;1271;22632;-63
2022/01/15 04:18:02;;;;;;;22.00;3.30;;;;;;;0.05;90.81;101452.92;106251;1271;22553;-64
2022/01/15 04:20:33;;;;;;;20.10;3.40;;;;;;;0.05;90.91;101449.77;106081;1271;22533;-63
2022/01/15 04:23:04;;;;;;;18.40;3.40;;;;;;;0.04;90.87;101447.35;106061;1271;22636;-63
2022/01/15 04:25:36;;;;;;;20.60;3.20;;;;;;;0.03;90.78;101449.54;106171;1271;22563;-63
2022/01/15 04:28:10;;;;;;;22.40;2.80;;;;;;;0.03;90.74;101450.33;106037;1271;22605;-63
2022/01/15 04:30:47;;;;;;;24.40;3.20;;;;;;;0.02;90.81;101453.98;106015;1271;24258;-62
2022/01/15 04:33:18;;;;;;;30.60;5.50;;;;;;;0.00;90.84;101456.49;106135;1271;22716;-62
2022/01/15 04:35:49;;;;;;;29.90;3.80;;;;;;;-0.00;90.88;101452.41;106001;1270;22560;-62
2022/01/15 04:38:21;;;;;;;24.70;4.10;;;;;;;-0.01;90.91;101452.86;106137;1270;24302;-63
2022/01/15 04:40:52;;;;;;;17.30;2.80;;;;;;;-0.02;90.92;101456.86;105957;1271;25378;-63
2022/01/15 04:43:23;;;;;;;23.30;3.60;;;;;;;-0.03;91.00;101459.36;106074;1270;24316;-62
2022/01/15 04:45:54;;;;;;;19.60;3.10;;;;;;;-0.03;90.98;101466.56;105994;1271;22611;-63
2022/01/15 04:48:25;;;;;;;27.80;4.80;;;;;;;-0.05;90.97;101468.91;106115;1271;22534;-62
2022/01/15 04:50:57;;;;;;;20.50;3.60;;;;;;;-0.06;91.21;101465.28;106069;1271;22805;-63
2022/01/15 04:53:28;;;;;;;22.40;4.10;;;;;;;-0.07;91.16;101469.04;106191;1271;25334;-63
2022/01/15 04:55:59;;;;;;;22.10;3.90;;;;;;;-0.09;91.17;101473.49;106063;1271;25330;-63
2022/01/15 04:58:30;;;;;;;25.00;4.70;;;;;;;-0.11;91.35;101477.19;105998;1271;22557;-63
2022/01/15 05:01:01;;;;;;;23.30;5.10;;;;;;;-0.11;91.10;101475.67;105860;1271;22633;-63
2022/01/15 05:03:33;;;;;;;24.90;7.10;;;;;;;-0.12;91.26;101472.05;106211;1270;25377;-63
2022/01/15 05:06:04;;;;;;;27.30;5.10;;;;;;;-0.13;91.48;101473.53;106002;1271;22537;-63
2022/01/15 05:08:34;;;;;;;28.20;4.90;;;;;;;-0.13;91.64;101476.91;105981;1271;24266;-64
2022/01/15 05:11:13;;;;;;;25.60;6.10;;;;;;;-0.14;91.56;101470.86;105973;1271;22615;-63
2022/01/15 05:13:44;;;;;;;23.80;4.30;;;;;;;-0.15;91.58;101470.45;106134;1271;22638;-63
2022/01/15 05:16:16;;;;;;;40.20;6.80;;;;;;;-0.15;91.61;101472.27;106133;1270;23082;-62
2022/01/15 05:18:47;;;;;;;28.80;5.90;;;;;;;-0.15;91.57;101471.73;106107;1270;23106;-63
2022/01/15 05:21:18;;;;;;;30.10;5.50;;;;;;;-0.15;91.45;101470.55;106042;1271;25273;-63
2022/01/15 05:23:49;;;;;;;18.20;4.00;;;;;;;-0.15;91.49;101475.08;105970;1271;22535;-62
2022/01/15 05:26:20;;;;;;;22.40;5.30;;;;;;;-0.18;91.52;101477.17;105862;1271;22684;-63
2022/01/15 05:28:51;;;;;;;33.70;5.50;;;;;;;-0.19;91.41;101471.52;105937;1271;22552;-63
2022/01/15 05:31:22;;;;;;;26.90;5.50;;;;;;;-0.20;91.58;101476.36;105947;1271;22539;-62
2022/01/15 05:33:52;;;;;;;28.00;5.90;;;;;;;-0.22;91.57;101478.77;106014;1271;22553;-66
2022/01/15 05:36:24;;;;;;;24.30;4.80;;;;;;;-0.23;91.45;101485.11;106034;1271;26667;-62
2022/01/15 05:38:55;;;;;;;22.90;6.00;;;;;;;-0.24;91.69;101486.11;106042;1271;24316;-63
2022/01/15 05:41:26;;;;;;;19.80;5.00;;;;;;;-0.25;91.56;101486.27;106079;1271;24384;-62
2022/01/15 05:44:01;;;;;;;32.50;5.50;;;;;;;-0.25;91.78;101489.16;106038;1271;22534;-63
2022/01/15 05:46:35;;;;;;;28.70;4.90;;;;;;;-0.25;91.70;101482.11;106224;1271;24277;-63
2022/01/15 05:49:06;;;;;;;27.40;7.10;;;;;;;-0.26;91.62;101480.76;106020;1271;22681;-64
2022/01/15 05:51:37;;;;;;;27.80;7.20;;;;;;;-0.28;91.50;101478.40;105957;1271;25261;-63
2022/01/15 05:54:10;;;;;;;29.30;6.20;;;;;;;-0.31;91.39;101483.46;106067;1272;22531;-63
2022/01/15 05:56:42;;;;;;;31.90;5.30;;;;;;;-0.32;91.48;101484.86;105935;1271;25459;-63
2022/01/15 05:59:13;;;;;;;31.00;7.50;;;;;;;-0.34;91.40;101487.34;106293;1271;22539;-63
2022/01/15 06:01:48;;;;;;;25.40;6.90;;;;;;;-0.36;91.42;101491.31;105979;1271;22542;-63
2022/01/15 06:04:21;;;;;;;24.50;5.20;;;;;;;-0.37;91.40;101494.98;105952;1271;22822;-62
2022/01/15 06:06:52;;;;;;;31.60;7.10;;;;;;;-0.39;91.48;101500.61;106133;1271;22557;-62
2022/01/15 06:09:23;;;;;;;31.10;6.20;;;;;;;-0.39;91.40;101501.77;105996;1271;22546;-62
2022/01/15 06:11:56;;;;;;;23.20;5.00;;;;;;;-0.38;91.47;101507.13;106115;1271;24369;-63
2022/01/15 06:14:27;;;;;;;22.50;4.80;;;;;;;-0.39;91.51;101505.23;106307;1271;25312;-63
2022/01/15 06:17:00;;;;;;;23.70;5.80;;;;;;;-0.39;91.69;101502.96;105946;1271;22688;-64
2022/01/15 06:19:32;;;;;;;31.70;6.80;;;;;;;-0.39;91.53;101501.94;106013;1271;22546;-63
2022/01/15 06:22:04;;;;;;;21.20;5.30;;;;;;;-0.38;91.63;101505.79;106073;1271;22598;-63
2022/01/15 06:24:34;;;;;;;29.50;7.00;;;;;;;-0.38;91.83;101509.64;106010;1271;24253;-63
2022/01/15 06:27:08;;;;;;;24.40;4.50;;;;;;;-0.37;91.82;101509.71;105846;1271;22627;-63
2022/01/15 06:29:39;;;;;;;35.00;7.30;;;;;;;-0.36;91.92;101506.52;106057;1271;22781;-63
2022/01/15 06:32:11;;;;;;;26.30;6.30;;;;;;;-0.35;92.13;101510.39;105974;1271;22648;-63
2022/01/15 06:34:43;;;;;;;27.50;6.50;;;;;;;-0.32;92.13;101507.27;106125;1271;22556;-63
2022/01/15 06:37:14;;;;;;;26.50;5.70;;;;;;;-0.31;92.06;101509.02;105928;1271;22707;-63
2022/01/15 06:39:45;;;;;;;30.70;7.20;;;;;;;-0.28;92.14;101505.98;106009;1271;24422;-63
2022/01/15 06:42:17;;;;;;;27.60;6.00;;;;;;;-0.25;92.26;101503.44;106163;1271;25519;-63
2022/01/15 06:44:49;;;;;;;24.10;4.20;;;;;;;-0.22;92.34;101498.52;105888;1271;24382;-63
2022/01/15 06:47:22;;;;;;;27.70;6.30;;;;;;;-0.20;92.65;101498.08;106092;1271;25324;-63
2022/01/15 06:49:56;;;;;;;28.20;4.50;;;;;;;-0.17;92.31;101496.63;105992;1271;24326;-63
2022/01/15 06:52:29;;;;;;;36.80;7.60;;;;;;;-0.14;92.44;101500.41;105852;1271;22544;-63
2022/01/15 06:55:01;;;;;;;28.20;5.60;;;;;;;-0.12;92.45;101499.98;106078;1271;22559;-63
2022/01/15 06:57:34;;;;;;;24.30;5.10;;;;;;;-0.09;92.51;101503.77;105978;1271;22476;-64
2022/01/15 07:00:10;;;;;;;38.80;7.10;;;;;;;-0.08;92.44;101504.73;105977;1270;22605;-63
2022/01/15 07:02:44;;;;;;;30.10;6.70;;;;;;;-0.06;92.40;101505.83;105997;1271;24289;-63
2022/01/15 07:05:20;;;;;;;38.10;9.00;;;;;;;-0.04;92.35;101507.34;105985;1271;24312;-63
2022/01/15 07:07:52;;;;;;;36.00;7.70;;;;;;;-0.03;92.36;101506.41;105988;1270;22532;-63
2022/01/15 07:10:28;;;;;;;33.00;7.00;;;;;;;-0.02;92.41;101509.41;106063;1271;22537;-63
2022/01/15 07:13:01;;;;;;;35.60;7.30;;;;;;;-0.00;92.52;101514.22;106101;1271;24319;-63
2022/01/15 07:15:38;;;;;;;37.10;6.90;;;;;;;0.03;92.63;101515.10;106216;1271;25341;-62
2022/01/15 07:18:12;;;;;;;25.60;4.90;;;;;;;0.05;92.65;101521.87;106110;1271;22649;-63
2022/01/15 07:20:45;;;;;;;32.60;5.50;;;;;;;0.06;92.72;101521.11;106065;1271;22570;-63
2022/01/15 07:23:19;;;;;;;29.80;6.50;;;;;;;0.08;92.73;101517.36;105987;1271;24256;-63
2022/01/15 07:25:52;;;;;;;31.60;7.30;;;;;;;0.11;92.75;101520.76;105887;1271;22556;-63
2022/01/15 07:28:27;;;;;;;33.20;6.90;;;;;;;0.13;92.71;101519.77;106040;1271;22536;-63
2022/01/15 07:31:02;;;;;;;35.40;8.80;;;;;;;0.15;92.60;101514.52;105921;1271;25543;-63
2022/01/15 07:33:35;;;;;;;38.60;9.00;;;;;;;0.17;92.63;101520.59;106030;1271;24215;-63
2022/01/15 07:36:11;;;;;;;39.40;8.60;;;;;;;0.19;92.77;101525.55;106109;1271;24087;-62
2022/01/15 07:38:45;;;;;;;38.20;7.60;;;;;;;0.22;92.93;101525.89;106121;1271;22573;-62
2022/01/15 07:41:19;;;;;;;28.00;5.70;;;;;;;0.24;92.98;101525.04;106039;1270;22594;-63
2022/01/15 07:43:52;;;;;;;42.60;8.90;;;;;;;0.25;93.10;101530.31;105961;1271;24320;-63
2022/01/15 07:46:27;;;;;;;30.90;8.20;;;;;;;0.27;93.00;101534.48;105950;1271;25535;-63
2022/01/15 07:49:02;;;;;;;30.50;7.00;;;;;;;0.28;92.99;101538.88;106265;1271;22541;-63
2022/01/15 07:51:35;;;;;;;30.40;7.70;;;;;;;0.28;93.05;101537.71;106056;1270;22623;-64
2022/01/15 07:54:10;;;;;;;30.90;7.70;;;;;;;0.30;93.00;101541.11;106019;1271;27901;-63
2022/01/15 07:56:44;;;;;;;35.80;7.30;;;;;;;0.32;93.05;101538.45;105992;1270;22636;-64
2022/01/15 07:59:22;;;;;;;35.30;5.80;;;;;;;0.34;93.09;101540.60;105824;1271;22531;-63
2022/01/15 08:01:56;;;;;;;28.20;6.60;;;;;;;0.36;93.09;101549.71;106068;1270;25594;-63
2022/01/15 08:05:06;;;;;;;40.20;7.40;;;;;;;0.37;93.17;101551.95;106205;1271;24265;-63
2022/01/15 08:07:42;;;;;;;38.50;7.50;;;;;;;0.40;93.09;101554.87;106600;1271;25129;-63
2022/01/15 08:13:56;;;;;;;33.50;8.70;;;;;;;0.46;93.02;101550.29;105891;1270;22836;-63
2022/01/15 08:16:48;;;;;;;34.90;8.50;;;;;;;0.48;92.88;101544.58;106019;1270;24258;-62
2022/01/15 08:19:24;;;;;;;42.20;10.50;;;;;;;0.51;92.91;101545.93;105959;1270;22535;-63
2022/01/15 08:21:59;;;;;;;39.10;9.10;;;;;;;0.53;92.98;101546.50;106072;1271;22537;-63
2022/01/15 08:24:32;;;;;;;30.40;6.00;;;;;;;0.55;93.00;101549.19;106239;1271;22580;-63
2022/01/15 08:28:06;;;;;;;33.10;8.30;;;;;;;0.56;92.92;101550.22;105854;1269;22747;-63
2022/01/15 08:34:12;;;;;;;40.10;9.00;;;;;;;0.60;92.74;101571.77;106079;1271;22547;-63
2022/01/15 08:36:46;;;;;;;36.50;8.80;;;;;;;0.63;92.66;101574.77;106274;1270;23110;-63
2022/01/15 08:39:20;;;;;;;42.90;9.00;;;;;;;0.65;92.69;101578.72;106062;1270;24249;-63
2022/01/15 08:41:54;;;;;;;39.40;8.90;;;;;;;0.66;92.68;101579.27;106132;1271;22871;-63
2022/01/15 08:44:28;;;;;;;40.80;9.60;;;;;;;0.68;92.66;101580.00;105977;1270;24309;-64
2022/01/15 08:47:04;;;;;;;47.30;9.50;;;;;;;0.70;92.65;101577.11;105872;1271;22834;-63
2022/01/15 08:49:41;;;;;;;45.70;10.00;;;;;;;0.74;92.64;101581.47;106044;1270;22537;-63
2022/01/15 08:52:16;;;;;;;43.30;9.30;;;;;;;0.76;92.57;101584.16;106159;1270;25223;-63
2022/01/15 08:54:52;;;;;;;30.50;6.90;;;;;;;0.79;92.48;101585.21;105985;1271;22806;-63
2022/01/15 08:57:25;;;;;;;44.30;9.10;;;;;;;0.83;92.58;101582.47;106044;1270;22540;-61
2022/01/15 09:00:14;;;;;;;33.60;7.70;;;;;;;0.86;92.56;101582.66;106122;1270;24280;-65
2022/01/15 09:02:48;;;;;;;29.00;7.30;;;;;;;0.89;92.45;101582.92;106031;1270;22624;-63
2022/01/15 09:05:22;;;;;;;36.90;8.40;;;;;;;0.90;92.39;101583.48;105905;1271;22550;-63
2022/01/15 09:07:56;;;;;;;35.10;9.00;;;;;;;0.93;92.28;101589.39;105966;1271;22531;-63
2022/01/15 09:10:29;;;;;;;40.60;8.50;;;;;;;0.95;92.38;101591.38;105970;1270;24282;-63
2022/01/15 09:13:10;;;;;;;35.50;7.90;;;;;;;0.98;92.35;101596.59;106127;1271;24313;-62
2022/01/15 09:19:18;;;;;;;34.70;6.80;;;;;;;1.01;92.12;101595.36;105954;1271;26901;-62
2022/01/15 09:21:53;;;;;;;32.70;5.40;;;;;;;1.03;92.17;101598.11;106031;1270;22651;-62
2022/01/15 09:24:29;;;;;;;35.30;5.60;;;;;;;1.05;92.09;101602.77;105912;1270;22596;-62
2022/01/15 09:30:11;;;;;;;30.40;7.20;;;;;;;1.06;92.11;101605.36;106193;1271;22741;-61
2022/01/15 09:30:15;;;;;;;39.40;8.60;;;;;;;1.09;92.11;101611.98;106048;1271;24286;-61
2022/01/15 09:32:58;;;;;;;39.50;8.30;;;;;;;1.11;91.98;101606.19;106221;1270;25339;-62
2022/01/15 09:35:37;;;;;;;24.10;5.30;;;;;;;1.14;92.16;101610.22;106124;1270;25306;-61
2022/01/15 09:38:12;;;;;;;37.50;6.60;;;;;;;1.17;92.04;101612.45;106207;1270;22519;-61
2022/01/15 09:40:48;;;;;;;26.70;6.00;;;;;;;1.21;92.08;101604.45;107350;1270;22559;-62
2022/01/15 09:43:23;;;;;;;29.60;7.60;;;;;;;1.24;92.04;101603.99;105992;1270;22554;-62
2022/01/15 09:45:59;;;;;;;42.30;8.00;;;;;;;1.28;92.07;101601.66;105813;1270;22545;-62
2022/01/15 09:48:39;;;;;;;26.70;5.60;;;;;;;1.33;91.87;101600.13;105998;1270;24373;-62
2022/01/15 09:54:04;;;;;;;39.90;6.30;;;;;;;1.41;91.92;101593.50;105610;1274;24383;-63
2022/01/15 09:57:29;;;;;;;34.60;5.60;;;;;;;1.42;91.77;101595.16;105713;1274;25388;-62
2022/01/15 10:00:01;;;;;;;34.90;5.00;;;;;;;1.47;91.92;101603.05;105624;1273;26171;-62
2022/01/15 10:02:38;;;;;;;28.30;6.00;;;;;;;1.52;92.06;101602.06;105909;1273;22545;-64
2022/01/15 10:05:13;;;;;;;31.90;5.80;;;;;;;1.58;92.20;101594.39;105749;1274;23162;-63
2022/01/15 10:08:01;;;;;;;31.50;5.60;;;;;;;1.63;92.12;101592.44;105674;1273;24256;-63
2022/01/15 10:10:36;;;;;;;38.30;8.60;;;;;;;1.66;91.82;101596.08;105503;1277;25503;-62
2022/01/15 10:13:20;;;;;;;29.80;6.00;;;;;;;1.71;92.00;101593.34;105757;1277;23078;-62
2022/01/15 10:18:59;;;;;;;36.70;6.50;;;;;;;1.82;91.61;101591.42;105223;1281;25934;-62
2022/01/15 10:21:34;;;;;;;28.50;4.40;;;;;;;1.85;91.44;101594.74;105052;1281;22676;-62
2022/01/15 10:24:29;;;;;;;33.30;5.20;;;;;;;1.87;91.24;101593.97;105159;1281;25354;-64
2022/01/15 10:27:38;;;;;;;31.30;4.70;;;;;;;1.88;91.30;101590.27;105385;1279;22617;-62
2022/01/15 10:30:15;;;;;;;25.10;5.80;;;;;;;1.91;91.43;101591.71;105398;1279;22544;-62
2022/01/15 10:36:32;;;;;;;28.40;4.30;;;;;;;1.97;90.80;101598.10;105380;1279;22575;-63
2022/01/15 10:39:20;;;;;;;29.30;5.40;;;;;;;1.98;90.90;101599.98;105329;1279;22580;-63
2022/01/15 10:42:22;;;;;;;30.70;6.40;;;;;;;2.00;91.05;101598.27;105450;1277;22557;-62
2022/01/15 10:44:59;;;;;;;29.00;5.30;;;;;;;2.05;91.02;101599.08;104955;1282;24306;-63
2022/01/15 10:47:40;;;;;;;35.80;5.90;;;;;;;2.08;91.07;101594.84;105198;1282;24303;-62
2022/01/15 10:50:26;;;;;;;25.50;3.50;;;;;;;2.11;90.88;101596.73;105132;1278;22583;-62
2022/01/15 10:53:06;;;;;;;33.60;4.90;;;;;;;2.12;90.75;101597.14;105413;1276;22573;-63
2022/01/15 10:55:42;;;;;;;27.60;5.40;;;;;;;2.13;90.64;101593.75;105705;1276;22574;-62
2022/01/15 10:58:17;;;;;;;33.90;6.20;;;;;;;2.15;90.63;101595.32;105480;1276;24268;-62
2022/01/15 11:00:52;;;;;;;31.00;5.70;;;;;;;2.16;90.47;101598.48;105447;1276;22580;-63
2022/01/15 11:03:36;;;;;;;27.30;4.70;;;;;;;2.17;90.85;101600.69;105404;1276;24443;-63
2022/01/15 11:06:12;;;;;;;30.30;5.00;;;;;;;2.18;90.46;101598.00;105501;1277;22574;-63
2022/01/15 11:08:52;;;;;;;30.80;4.80;;;;;;;2.15;90.24;101596.35;105628;1276;22569;-62
2022/01/15 11:11:32;;;;;;;31.90;5.30;;;;;;;2.18;90.68;101593.36;105441;1276;22583;-62
2022/01/15 11:14:07;;;;;;;30.50;4.70;;;;;;;2.18;90.42;101590.46;105541;1276;25211;-62
2022/01/15 11:16:41;;;;;;;31.20;5.10;;;;;;;2.19;90.36;101594.70;105551;1276;24444;-62
2022/01/15 11:19:57;;;;;;;25.70;5.10;;;;;;;2.19;90.38;101595.27;105547;1276;25383;-62
2022/01/15 11:22:32;;;;;;;27.90;4.50;;;;;;;2.22;90.33;101596.05;105594;1276;22556;-62
2022/01/15 11:25:08;;;;;;;28.00;5.80;;;;;;;2.24;90.46;101593.85;105489;1276;22715;-62
2022/01/15 11:27:43;;;;;;;26.00;4.70;;;;;;;2.26;90.34;101590.01;105538;1276;22556;-62
2022/01/15 11:30:20;;;;;;;24.70;5.80;;;;;;;2.30;90.38;101591.91;105389;1276;22546;-62
2022/01/15 11:32:58;;;;;;;28.80;5.20;;;;;;;2.35;90.29;101585.54;105571;1276;24457;-62
2022/01/15 11:35:44;;;;;;;22.50;3.60;;;;;;;2.40;90.21;101586.81;105483;1271;22560;-62
2022/01/15 11:38:39;;;;;;;31.20;6.10;;;;;;;2.43;90.06;101584.45;106083;1271;22540;-62
2022/01/15 11:41:40;;;;;;;29.10;4.90;;;;;;;2.47;90.07;101582.18;106027;1270;24411;-63
2022/01/15 11:44:17;;;;;;;30.80;6.80;;;;;;;2.52;90.18;101576.04;106359;1270;25240;-63
2022/01/15 11:46:54;;;;;;;35.80;5.90;;;;;;;2.54;89.78;101574.46;106056;1270;25359;-63
2022/01/15 11:49:41;;;;;;;26.10;4.60;;;;;;;2.51;89.20;101579.02;105889;1270;25364;-63
2022/01/15 11:52:35;;;;;;;29.10;6.10;;;;;;;2.46;89.60;101578.55;106070;1271;24440;-63
2022/01/15 11:55:24;;;;;;;35.50;5.40;;;;;;;2.45;89.74;101573.83;106086;1270;25418;-62
2022/01/15 11:58:00;;;;;;;31.90;6.10;;;;;;;2.45;89.79;101574.23;106053;1270;24327;-62
2022/01/15 12:00:42;;;;;;;27.70;4.60;;;;;;;2.43;89.72;101580.83;105953;1270;212335;-63
2022/01/15 12:03:15;;;;;;;20.20;3.80;;;;;;;2.39;89.77;101582.95;105938;1271;22553;-63
2022/01/15 12:06:00;;;;;;;22.20;2.90;;;;;;;2.33;89.65;101577.67;106088;1270;22654;-62
2022/01/15 12:08:36;;;;;;;22.80;3.90;;;;;;;2.29;89.75;101579.30;106080;1270;25270;-62
2022/01/15 12:11:08;;;;;;;28.30;5.10;;;;;;;2.26;89.92;101571.20;106033;1271;22535;-63
2022/01/15 12:13:51;;;;;;;23.20;3.60;;;;;;;2.24;89.87;101571.97;106101;1270;23046;-63
2022/01/15 12:16:36;;;;;;;21.10;4.40;;;;;;;2.21;89.80;101569.30;106113;1270;23002;-62
2022/01/15 12:19:08;;;;;;;30.70;4.30;;;;;;;2.17;89.91;101565.02;106054;1270;23051;-62